Terminal Aerodrome Forecast
Issued by NWS Tampa Bay Area, FL

Home | Current Version | Previous Version | Text Only | Print | Product List | Glossary On
Versions: 1 2 3 4 5 6 7 8 9 10 11 12 13 14
404
FTUS42 KTBW 191731
TAFFMY
TAF
KFMY 191731Z 1918/2018 27008KT P6SM SCT035 SCT250
     FM200200 30004KT P6SM FEW040 SCT250
     FM200800 VRB03KT 5SM BR SCT008 SCT250
     FM201300 03007KT P6SM FEW030 SCT250=

USA.gov is the U.S. government's official web portal to all federal, state and local government web resources and services.